Time;durP1;ratioP1;P1;durP2;ratioP2;P2;SDS_P1;SDS_P2;PMS_P1;PMS_P2;Temp;Humidity;BMP_temperature;BMP_pressure;BME280_temperature;BME280_humidity;BME280_pressure;Samples;Min_cycle;Max_cycle;Signal;HPM_P1;HPM_P2
2023/05/21 00:00:11;;;;;;;12.10;9.23;;;17.50;96.50;;;;;;6178997;23;20085;-66
2023/05/21 00:02:38;;;;;;;14.60;9.57;;;17.50;96.40;;;;;;6179653;23;20084;-66
2023/05/21 00:05:04;;;;;;;11.85;9.32;;;17.50;96.50;;;;;;6150425;23;20025;-66
2023/05/21 00:07:32;;;;;;;12.18;10.07;;;17.50;96.50;;;;;;6177521;23;20410;-66
2023/05/21 00:09:59;;;;;;;14.30;10.05;;;17.40;96.60;;;;;;6150828;23;20092;-65
2023/05/21 00:12:24;;;;;;;14.07;10.57;;;17.40;96.70;;;;;;6176545;23;20635;-66
2023/05/21 00:14:50;;;;;;;13.50;9.20;;;17.40;96.70;;;;;;6178557;23;20008;-66
2023/05/21 00:17:16;;;;;;;17.35;9.40;;;17.40;96.80;;;;;;6178586;23;20084;-66
2023/05/21 00:19:43;;;;;;;13.55;9.77;;;17.40;96.90;;;;;;6178719;23;20509;-66
2023/05/21 00:22:08;;;;;;;12.32;9.25;;;17.40;97.00;;;;;;6178927;23;20001;-66
2023/05/21 00:24:34;;;;;;;15.23;10.48;;;17.40;97.00;;;;;;6178456;23;20084;-66
2023/05/21 00:26:59;;;;;;;11.27;9.35;;;17.40;97.10;;;;;;6151235;23;20059;-66
2023/05/21 00:29:26;;;;;;;12.43;9.82;;;17.40;97.30;;;;;;6176969;23;20001;-66
2023/05/21 00:31:52;;;;;;;14.18;8.98;;;17.30;97.10;;;;;;6150313;23;20113;-66
2023/05/21 00:34:18;;;;;;;14.80;10.18;;;17.30;97.20;;;;;;6178210;23;20040;-67
2023/05/21 00:36:45;;;;;;;14.95;9.85;;;17.30;97.30;;;;;;6178633;23;20012;-67
2023/05/21 00:39:12;;;;;;;13.07;10.00;;;17.30;97.40;;;;;;6177808;23;20040;-67
2023/05/21 00:41:39;;;;;;;14.90;10.80;;;17.30;97.50;;;;;;6177536;23;20009;-67
2023/05/21 00:44:05;;;;;;;15.02;9.45;;;17.30;97.50;;;;;;6176284;23;20060;-67
2023/05/21 00:46:31;;;;;;;13.52;9.00;;;17.30;97.50;;;;;;6176631;23;20005;-66
2023/05/21 00:48:57;;;;;;;13.23;9.77;;;17.20;97.50;;;;;;6177838;23;20013;-67
2023/05/21 00:51:24;;;;;;;13.70;9.25;;;17.20;97.60;;;;;;6178142;23;20005;-66
2023/05/21 00:53:51;;;;;;;13.93;10.05;;;17.20;97.70;;;;;;6150154;23;20009;-67
2023/05/21 00:56:20;;;;;;;12.02;9.30;;;17.20;97.70;;;;;;6178469;23;20032;-67
2023/05/21 00:58:46;;;;;;;15.15;9.73;;;17.20;97.80;;;;;;6177123;23;20403;-66
2023/05/21 01:01:12;;;;;;;13.23;9.30;;;17.20;97.90;;;;;;6177340;23;20009;-66
2023/05/21 01:03:39;;;;;;;16.15;9.75;;;17.10;97.90;;;;;;6177429;23;20021;-67
2023/05/21 01:06:06;;;;;;;14.38;10.02;;;17.10;98.00;;;;;;6178282;23;20134;-66
2023/05/21 01:08:39;;;;;;;12.23;9.38;;;17.10;98.10;;;;;;6177127;23;20016;-65
2023/05/21 01:11:06;;;;;;;13.60;10.57;;;17.10;98.10;;;;;;6178123;23;20015;-65
2023/05/21 01:13:35;;;;;;;12.27;9.63;;;17.10;98.20;;;;;;6176310;23;20005;-65
2023/05/21 01:16:05;;;;;;;12.32;10.75;;;17.10;98.30;;;;;;6178578;23;20067;-66
2023/05/21 01:18:33;;;;;;;14.48;10.25;;;17.00;98.30;;;;;;6178358;23;20020;-66
2023/05/21 01:21:00;;;;;;;14.95;10.40;;;17.00;98.40;;;;;;6178813;23;20013;-66
2023/05/21 01:23:26;;;;;;;13.88;10.32;;;17.00;98.40;;;;;;6177067;23;20084;-67
2023/05/21 01:25:52;;;;;;;13.65;10.30;;;17.00;98.50;;;;;;6177549;23;20032;-66
2023/05/21 01:28:17;;;;;;;15.77;10.75;;;17.00;98.60;;;;;;6177455;23;20012;-67
2023/05/21 01:30:43;;;;;;;14.57;10.15;;;17.00;98.60;;;;;;6178839;23;20317;-68
2023/05/21 01:33:23;;;;;;;14.77;10.52;;;17.00;98.70;;;;;;6177606;23;20479;-66
2023/05/21 01:36:25;;;;;;;12.77;9.95;;;17.00;98.90;;;;;;6151752;23;20044;-66
2023/05/21 01:39:06;;;;;;;16.95;11.15;;;17.00;98.70;;;;;;6151567;23;20009;-65
2023/05/21 01:41:37;;;;;;;16.73;10.90;;;16.90;98.80;;;;;;6151548;23;20012;-65
2023/05/21 01:44:05;;;;;;;16.75;10.70;;;16.90;98.80;;;;;;6176233;23;20029;-65
2023/05/21 01:46:33;;;;;;;22.60;11.38;;;16.90;98.90;;;;;;6150569;23;20009;-65
2023/05/21 01:48:59;;;;;;;14.48;11.50;;;16.90;99.00;;;;;;6178466;23;20009;-66
2023/05/21 01:51:26;;;;;;;18.35;11.82;;;16.90;99.10;;;;;;6178726;23;20430;-66
2023/05/21 01:53:51;;;;;;;15.10;10.38;;;16.90;99.20;;;;;;6177592;23;20059;-65
2023/05/21 01:56:17;;;;;;;15.20;11.35;;;16.90;99.20;;;;;;6150654;23;20013;-65
2023/05/21 01:58:42;;;;;;;14.35;10.77;;;16.90;99.30;;;;;;6177785;23;20036;-66
2023/05/21 02:01:08;;;;;;;15.43;11.95;;;16.90;99.30;;;;;;6178296;23;20013;-65
2023/05/21 02:03:34;;;;;;;15.80;10.95;;;16.80;99.30;;;;;;6177248;23;20017;-65
2023/05/21 02:06:00;;;;;;;15.90;11.70;;;16.80;99.40;;;;;;6180363;23;20009;-65
2023/05/21 02:08:26;;;;;;;14.70;11.63;;;16.80;99.50;;;;;;6182122;23;20097;-65
2023/05/21 02:10:52;;;;;;;16.35;11.55;;;16.80;99.50;;;;;;6179316;23;20012;-67
2023/05/21 02:13:21;;;;;;;15.98;11.90;;;16.80;99.80;;;;;;6153253;23;20009;-67
2023/05/21 02:15:47;;;;;;;15.45;11.60;;;16.80;99.70;;;;;;6178633;23;20490;-67
2023/05/21 02:18:15;;;;;;;18.70;12.45;;;16.80;99.70;;;;;;6180523;23;20012;-67
2023/05/21 02:20:42;;;;;;;15.13;11.52;;;16.80;99.90;;;;;;6179943;23;20020;-66
2023/05/21 02:23:07;;;;;;;14.05;11.18;;;16.70;99.80;;;;;;6177404;23;20059;-67
2023/05/21 02:25:33;;;;;;;15.30;12.57;;;16.70;99.90;;;;;;6179314;23;20013;-67
2023/05/21 02:27:59;;;;;;;18.23;12.10;;;16.70;99.90;;;;;;6179022;23;20084;-67
2023/05/21 02:30:25;;;;;;;16.80;12.63;;;16.60;99.90;;;;;;6179706;23;20016;-67
2023/05/21 02:32:51;;;;;;;14.02;10.20;;;16.60;99.90;;;;;;6179538;23;20009;-67
2023/05/21 02:35:17;;;;;;;15.63;12.57;;;16.60;99.90;;;;;;6179256;23;20009;-68
2023/05/21 02:37:43;;;;;;;15.77;13.35;;;16.60;99.90;;;;;;6179557;23;20436;-67
2023/05/21 02:40:09;;;;;;;20.75;13.52;;;16.60;99.90;;;;;;6179397;23;20444;-67
2023/05/21 02:42:38;;;;;;;16.98;12.93;;;16.50;99.90;;;;;;6179227;23;20420;-66
2023/05/21 02:45:07;;;;;;;17.02;12.20;;;16.50;99.90;;;;;;6152424;23;20028;-65
2023/05/21 02:47:33;;;;;;;18.58;12.95;;;16.50;99.90;;;;;;6153335;23;20044;-64
2023/05/21 02:49:59;;;;;;;18.27;13.63;;;16.50;99.90;;;;;;6178158;23;20009;-64
2023/05/21 02:52:24;;;;;;;23.48;13.27;;;16.50;99.90;;;;;;6179223;23;20001;-68
2023/05/21 02:54:51;;;;;;;18.17;12.82;;;16.50;99.90;;;;;;6178193;23;20087;-71
2023/05/21 02:57:17;;;;;;;15.52;12.40;;;16.50;99.90;;;;;;6177555;23;20048;-71
2023/05/21 02:59:43;;;;;;;17.67;13.63;;;16.40;99.90;;;;;;6178323;23;20013;-71
2023/05/21 03:02:09;;;;;;;16.75;12.48;;;16.40;99.90;;;;;;6178654;23;20458;-72
2023/05/21 03:04:37;;;;;;;19.50;13.43;;;16.40;99.90;;;;;;6152131;23;20017;-72
2023/05/21 03:07:04;;;;;;;19.02;13.30;;;16.40;99.90;;;;;;6179108;23;20310;-69
2023/05/21 03:09:29;;;;;;;17.98;13.73;;;16.40;99.90;;;;;;6177802;23;20012;-70
2023/05/21 03:11:55;;;;;;;16.48;13.15;;;16.40;99.90;;;;;;6178921;23;20009;-70
2023/05/21 03:14:21;;;;;;;19.52;13.95;;;16.40;99.90;;;;;;6179322;23;20017;-69
2023/05/21 03:16:47;;;;;;;18.00;14.05;;;16.40;99.90;;;;;;6151984;23;20012;-69
2023/05/21 03:19:14;;;;;;;19.13;13.75;;;16.40;99.90;;;;;;6178543;23;20079;-69
2023/05/21 03:21:40;;;;;;;19.73;15.38;;;16.40;99.90;;;;;;6178866;23;20009;-70
2023/05/21 03:24:06;;;;;;;20.42;13.55;;;16.30;99.90;;;;;;6178651;23;20047;-70
2023/05/21 03:26:32;;;;;;;18.20;14.05;;;16.40;99.90;;;;;;6178116;23;20451;-69
2023/05/21 03:28:58;;;;;;;16.75;13.10;;;16.40;99.90;;;;;;6178704;23;20005;-69
2023/05/21 03:31:24;;;;;;;17.85;14.10;;;16.40;99.90;;;;;;6178231;23;20004;-69
2023/05/21 03:33:51;;;;;;;19.58;14.73;;;16.40;99.90;;;;;;6151828;23;20020;-69
2023/05/21 03:36:17;;;;;;;17.33;13.25;;;16.40;99.90;;;;;;6179338;23;20008;-69
2023/05/21 03:38:42;;;;;;;21.30;15.02;;;16.40;99.90;;;;;;6178402;23;20009;-70
2023/05/21 03:41:09;;;;;;;19.35;14.68;;;16.40;99.90;;;;;;6178560;23;20009;-69
2023/05/21 03:43:35;;;;;;;16.98;13.75;;;16.40;99.90;;;;;;6177644;23;20024;-69
2023/05/21 03:46:00;;;;;;;19.13;13.38;;;16.50;99.90;;;;;;6150207;23;20017;-68
2023/05/21 03:48:27;;;;;;;20.70;14.82;;;16.50;99.90;;;;;;6175885;23;20028;-68
2023/05/21 03:50:53;;;;;;;17.92;13.98;;;16.50;99.90;;;;;;6178895;23;20013;-68
2023/05/21 03:53:18;;;;;;;21.48;16.05;;;16.50;99.90;;;;;;6176794;23;20108;-68
2023/05/21 03:55:44;;;;;;;20.33;14.57;;;16.50;99.90;;;;;;6151992;23;20516;-68
2023/05/21 03:58:10;;;;;;;19.05;14.32;;;16.60;99.90;;;;;;6176277;23;20007;-68
2023/05/21 04:00:36;;;;;;;20.85;14.68;;;16.60;99.90;;;;;;6178837;23;20013;-67
2023/05/21 04:03:05;;;;;;;18.08;14.73;;;16.60;99.90;;;;;;6176321;23;20086;-67
2023/05/21 04:05:32;;;;;;;20.60;14.40;;;16.60;99.90;;;;;;6154687;23;20087;-67
2023/05/21 04:07:58;;;;;;;17.98;14.15;;;16.70;99.90;;;;;;6176617;23;20267;-68
2023/05/21 04:10:25;;;;;;;19.90;15.65;;;16.70;99.90;;;;;;6176483;23;20020;-67
2023/05/21 04:12:51;;;;;;;14.82;11.63;;;16.70;99.90;;;;;;6150402;23;20013;-68
2023/05/21 04:15:17;;;;;;;18.05;14.45;;;16.70;99.90;;;;;;6149792;23;20013;-68
2023/05/21 04:17:44;;;;;;;19.20;14.52;;;16.70;99.90;;;;;;6149118;23;20001;-67
2023/05/21 04:20:12;;;;;;;18.33;13.90;;;16.80;99.90;;;;;;6175147;23;20013;-68
2023/05/21 04:22:38;;;;;;;23.10;15.73;;;16.80;99.90;;;;;;6149756;23;20336;-67
2023/05/21 04:25:04;;;;;;;18.98;14.55;;;16.80;99.90;;;;;;6175622;23;20064;-68
2023/05/21 04:27:30;;;;;;;20.48;16.15;;;16.90;99.90;;;;;;6176723;23;20005;-67
2023/05/21 04:29:56;;;;;;;23.63;15.40;;;16.90;99.90;;;;;;6176153;23;20503;-67
2023/05/21 04:32:22;;;;;;;18.25;14.65;;;17.00;99.90;;;;;;6176473;23;20012;-66
2023/05/21 04:34:48;;;;;;;19.73;15.48;;;17.00;99.90;;;;;;6149481;23;20009;-68
2023/05/21 04:37:16;;;;;;;19.63;14.73;;;17.00;99.90;;;;;;6177561;23;20437;-68
2023/05/21 04:39:42;;;;;;;17.65;13.18;;;17.10;99.90;;;;;;6177162;23;20132;-68
2023/05/21 04:42:09;;;;;;;18.88;14.63;;;17.10;99.90;;;;;;6177319;23;20375;-68
2023/05/21 04:44:36;;;;;;;20.45;15.38;;;17.10;99.90;;;;;;6176494;23;20332;-68
2023/05/21 04:47:02;;;;;;;17.75;13.00;;;17.20;99.90;;;;;;6177050;23;20423;-67
2023/05/21 04:49:28;;;;;;;19.90;14.25;;;17.30;99.90;;;;;;6176766;23;20059;-67
2023/05/21 04:51:54;;;;;;;17.63;14.73;;;17.30;99.90;;;;;;6176587;23;20005;-66
2023/05/21 04:54:20;;;;;;;18.13;13.23;;;17.40;99.90;;;;;;6176587;23;20017;-66
2023/05/21 04:56:46;;;;;;;21.00;14.95;;;17.50;99.90;;;;;;6176546;23;20037;-66
2023/05/21 04:59:12;;;;;;;16.40;12.68;;;17.50;99.90;;;;;;6175640;23;20450;-66
2023/05/21 05:01:38;;;;;;;19.23;13.75;;;17.60;99.90;;;;;;6177340;23;20398;-66
2023/05/21 05:04:04;;;;;;;21.40;14.65;;;17.70;99.90;;;;;;6176665;23;20021;-67
2023/05/21 05:06:30;;;;;;;16.33;12.68;;;17.70;99.90;;;;;;6150191;23;20108;-66
2023/05/21 05:08:56;;;;;;;22.17;14.70;;;17.70;99.90;;;;;;6149053;23;20040;-66
2023/05/21 05:11:21;;;;;;;19.65;14.55;;;17.90;99.90;;;;;;6176904;23;20012;-66
2023/05/21 05:13:47;;;;;;;18.55;14.38;;;17.90;99.90;;;;;;6177289;23;20158;-66
2023/05/21 05:16:18;;;;;;;19.58;14.38;;;18.00;99.90;;;;;;6177636;23;20012;-66
2023/05/21 05:18:43;;;;;;;22.00;13.95;;;18.10;99.90;;;;;;6176502;23;20009;-69
2023/05/21 05:21:09;;;;;;;18.58;13.30;;;18.10;99.90;;;;;;6177828;23;20047;-68
2023/05/21 05:23:34;;;;;;;19.45;14.38;;;18.20;99.90;;;;;;6175623;23;20063;-68
2023/05/21 05:26:00;;;;;;;19.80;13.98;;;18.20;99.90;;;;;;6178002;23;20044;-68
2023/05/21 05:28:26;;;;;;;20.33;13.13;;;18.30;99.90;;;;;;6150855;23;20446;-68
2023/05/21 05:30:51;;;;;;;17.45;12.65;;;18.40;99.90;;;;;;6176931;23;20195;-68
2023/05/21 05:33:17;;;;;;;21.67;15.00;;;18.50;99.90;;;;;;6151442;23;20033;-68
2023/05/21 05:35:42;;;;;;;18.48;13.60;;;18.50;99.90;;;;;;6177059;23;20031;-68
2023/05/21 05:38:08;;;;;;;17.55;13.13;;;18.60;99.90;;;;;;6178252;23;20005;-68
2023/05/21 05:40:34;;;;;;;17.20;12.68;;;18.70;99.90;;;;;;6177946;23;20071;-68
2023/05/21 05:42:59;;;;;;;19.85;13.27;;;18.80;99.90;;;;;;6176252;23;20009;-70
2023/05/21 05:45:25;;;;;;;17.85;13.07;;;18.80;99.90;;;;;;6175692;23;20025;-69
2023/05/21 05:47:51;;;;;;;18.45;12.70;;;18.90;99.90;;;;;;6175461;23;20013;-70
2023/05/21 05:50:17;;;;;;;22.20;13.60;;;18.90;99.90;;;;;;6150079;23;20009;-69
2023/05/21 05:52:43;;;;;;;18.35;13.13;;;18.90;99.90;;;;;;6176360;23;20413;-69
2023/05/21 05:55:10;;;;;;;15.98;13.02;;;19.00;99.90;;;;;;6175609;23;20091;-70
2023/05/21 05:57:36;;;;;;;19.30;12.82;;;19.10;99.90;;;;;;6149100;23;20036;-69
2023/05/21 06:00:03;;;;;;;16.88;12.20;;;19.20;99.90;;;;;;6178736;23;20188;-69
2023/05/21 06:02:29;;;;;;;18.25;13.85;;;19.20;99.90;;;;;;6177619;23;20032;-68
2023/05/21 06:04:54;;;;;;;17.17;13.57;;;19.30;99.90;;;;;;6174895;23;20017;-69
2023/05/21 06:07:20;;;;;;;17.40;11.93;;;19.30;99.90;;;;;;6176837;23;20013;-68
2023/05/21 06:09:46;;;;;;;16.33;12.75;;;19.40;99.90;;;;;;6175915;23;20009;-68
2023/05/21 06:12:14;;;;;;;17.33;11.52;;;19.50;99.90;;;;;;6177166;23;20005;-69
2023/05/21 06:14:40;;;;;;;19.10;12.52;;;19.60;99.90;;;;;;6176320;23;20013;-69
2023/05/21 06:17:06;;;;;;;15.73;13.13;;;19.60;99.70;;;;;;6175553;23;20430;-67
2023/05/21 06:19:32;;;;;;;15.85;12.18;;;19.70;99.40;;;;;;6175451;23;20009;-67
2023/05/21 06:21:57;;;;;;;15.55;11.32;;;19.80;99.30;;;;;;6176237;23;20032;-68
2023/05/21 06:24:23;;;;;;;16.75;12.07;;;19.80;99.30;;;;;;6175561;23;20017;-68
2023/05/21 06:26:48;;;;;;;17.05;11.40;;;19.80;98.90;;;;;;6177314;23;20013;-68
2023/05/21 06:29:15;;;;;;;17.00;12.10;;;19.90;99.00;;;;;;6175480;23;20331;-69
2023/05/21 06:31:41;;;;;;;17.30;11.32;;;20.00;99.00;;;;;;6176704;23;20005;-68
2023/05/21 06:34:07;;;;;;;15.00;10.90;;;20.00;98.90;;;;;;6179616;23;20020;-68
2023/05/21 06:36:33;;;;;;;19.00;12.30;;;20.00;98.80;;;;;;6180359;23;20032;-69
2023/05/21 06:38:59;;;;;;;13.05;10.50;;;20.10;98.80;;;;;;6179333;23;20395;-68
2023/05/21 06:41:25;;;;;;;16.23;11.77;;;20.10;98.60;;;;;;6179923;23;20040;-68
2023/05/21 06:43:51;;;;;;;15.80;12.10;;;20.20;98.50;;;;;;6179726;23;20075;-68
2023/05/21 06:46:17;;;;;;;15.65;11.95;;;20.30;98.50;;;;;;6181668;23;20015;-68
2023/05/21 06:48:43;;;;;;;17.60;11.85;;;20.30;98.30;;;;;;6177689;23;20008;-67
2023/05/21 06:51:09;;;;;;;14.75;11.20;;;20.30;98.10;;;;;;6176368;23;20427;-69
2023/05/21 06:53:34;;;;;;;15.48;11.32;;;20.40;98.20;;;;;;6176458;23;20005;-68
2023/05/21 06:56:00;;;;;;;14.85;10.63;;;20.40;98.00;;;;;;6178552;23;20204;-69
2023/05/21 06:58:29;;;;;;;14.30;10.75;;;20.40;98.00;;;;;;6178079;23;20423;-69
2023/05/21 07:00:58;;;;;;;18.13;12.35;;;20.50;97.90;;;;;;6178900;23;20422;-70
2023/05/21 07:03:24;;;;;;;14.70;10.43;;;20.60;97.80;;;;;;6175370;23;20009;-68
2023/05/21 07:05:50;;;;;;;14.57;11.30;;;20.60;97.80;;;;;;6180944;23;20067;-70
2023/05/21 07:08:16;;;;;;;13.07;10.05;;;20.70;97.70;;;;;;6182485;23;20005;-65
2023/05/21 07:10:41;;;;;;;13.15;10.38;;;20.80;97.60;;;;;;6180522;23;20084;-64
2023/05/21 07:13:07;;;;;;;14.75;11.32;;;20.80;97.50;;;;;;6182057;23;20005;-65
2023/05/21 07:15:33;;;;;;;12.27;9.77;;;20.90;97.30;;;;;;6181993;23;20350;-65
2023/05/21 07:17:58;;;;;;;12.80;9.90;;;21.00;97.20;;;;;;6182701;23;20055;-64
2023/05/21 07:20:24;;;;;;;13.15;9.80;;;21.00;97.10;;;;;;6156439;23;20009;-64
2023/05/21 07:22:50;;;;;;;13.90;9.88;;;21.10;96.90;;;;;;6182360;23;20001;-64
2023/05/21 07:25:15;;;;;;;15.52;10.63;;;21.20;97.00;;;;;;6179744;23;20312;-67
2023/05/21 07:27:41;;;;;;;12.23;9.15;;;21.30;96.80;;;;;;6181521;23;20069;-67
2023/05/21 07:30:08;;;;;;;13.73;10.20;;;21.30;96.80;;;;;;6182099;23;20067;-69
2023/05/21 07:32:34;;;;;;;12.60;9.27;;;21.40;96.70;;;;;;6155315;23;20005;-67
2023/05/21 07:35:03;;;;;;;14.02;10.48;;;21.40;96.60;;;;;;6181117;23;20084;-68
2023/05/21 07:37:28;;;;;;;11.43;9.38;;;21.50;96.50;;;;;;6182079;23;20001;-67
2023/05/21 07:39:57;;;;;;;12.18;9.70;;;21.60;96.30;;;;;;6155864;23;20005;-67
2023/05/21 07:42:23;;;;;;;13.65;9.80;;;21.70;96.20;;;;;;6181748;23;20545;-67
2023/05/21 07:44:48;;;;;;;11.23;8.55;;;21.70;96.20;;;;;;6181555;23;20060;-67
2023/05/21 07:47:14;;;;;;;13.02;8.77;;;21.80;95.90;;;;;;6182744;23;20420;-69
2023/05/21 07:49:40;;;;;;;12.95;8.70;;;21.80;95.80;;;;;;6182151;23;20051;-66
2023/05/21 07:52:06;;;;;;;11.95;8.45;;;21.90;95.80;;;;;;6180293;23;20009;-66
2023/05/21 07:54:32;;;;;;;11.60;7.95;;;22.00;95.60;;;;;;6178614;23;20001;-65
2023/05/21 07:56:57;;;;;;;12.73;8.45;;;22.10;95.40;;;;;;6182301;23;20040;-66
2023/05/21 07:59:24;;;;;;;10.18;8.27;;;22.20;95.20;;;;;;6181938;23;20068;-65
2023/05/21 08:01:49;;;;;;;12.00;9.10;;;22.30;95.20;;;;;;6181282;23;20347;-65
2023/05/21 08:04:15;;;;;;;14.00;8.75;;;22.30;95.10;;;;;;6179032;23;20020;-65
2023/05/21 08:06:40;;;;;;;14.23;9.57;;;22.40;95.10;;;;;;6181004;23;20009;-65
2023/05/21 08:09:07;;;;;;;12.63;8.07;;;22.50;94.90;;;;;;6181604;23;20357;-65
2023/05/21 08:11:32;;;;;;;10.95;7.72;;;22.60;94.70;;;;;;6182193;23;20330;-65
2023/05/21 08:13:58;;;;;;;13.25;9.05;;;22.60;94.50;;;;;;6181348;23;20009;-65
2023/05/21 08:16:23;;;;;;;14.95;8.27;;;22.60;94.40;;;;;;6180594;23;20016;-65
2023/05/21 08:18:50;;;;;;;10.20;8.05;;;22.70;94.20;;;;;;6181407;23;20009;-65
2023/05/21 08:21:15;;;;;;;11.57;8.00;;;22.70;94.20;;;;;;6154680;23;20260;-65
2023/05/21 08:23:42;;;;;;;9.77;6.90;;;22.80;94.00;;;;;;6180162;23;20494;-65
2023/05/21 08:26:07;;;;;;;10.50;6.88;;;22.80;93.70;;;;;;6181272;23;20431;-65
2023/05/21 08:28:35;;;;;;;10.15;7.22;;;22.90;93.60;;;;;;6155154;23;20016;-66
2023/05/21 08:31:01;;;;;;;9.63;7.57;;;22.90;93.40;;;;;;6181950;23;20036;-65
2023/05/21 08:33:27;;;;;;;10.93;7.40;;;23.00;93.30;;;;;;6152479;23;20455;-68
2023/05/21 08:35:52;;;;;;;11.00;7.18;;;23.00;93.20;;;;;;6179634;23;20001;-69
2023/05/21 08:38:18;;;;;;;9.95;7.55;;;23.10;93.00;;;;;;6180562;23;20339;-69
2023/05/21 08:40:46;;;;;;;10.35;7.55;;;23.10;93.00;;;;;;6180887;23;20391;-69
2023/05/21 08:43:15;;;;;;;10.13;6.75;;;23.20;93.00;;;;;;6179686;23;20375;-69
2023/05/21 08:45:43;;;;;;;12.25;7.05;;;23.40;93.00;;;;;;6180154;23;20440;-69
2023/05/21 08:48:12;;;;;;;10.05;7.40;;;23.50;93.00;;;;;;6181314;23;20032;-68
2023/05/21 08:50:39;;;;;;;10.88;7.57;;;23.60;92.60;;;;;;6181684;23;20060;-68
2023/05/21 08:53:04;;;;;;;8.48;6.30;;;23.60;92.40;;;;;;6155518;23;20041;-69
2023/05/21 08:55:31;;;;;;;10.65;6.88;;;23.70;92.10;;;;;;6180560;23;20312;-69
2023/05/21 08:57:57;;;;;;;9.73;6.38;;;23.80;91.90;;;;;;6181567;23;20450;-69
2023/05/21 09:00:23;;;;;;;11.13;7.15;;;23.80;91.70;;;;;;6182822;23;20005;-69
2023/05/21 09:02:49;;;;;;;12.38;7.53;;;23.90;91.80;;;;;;6181424;23;20009;-69
2023/05/21 09:05:16;;;;;;;11.23;6.85;;;24.00;91.50;;;;;;6180146;23;20016;-68
2023/05/21 09:07:59;;;;;;;8.75;6.65;;;24.10;91.30;;;;;;6180573;23;20009;-68
2023/05/21 09:10:32;;;;;;;8.07;6.55;;;24.10;91.00;;;;;;6181490;23;20084;-69
2023/05/21 09:12:58;;;;;;;10.30;6.53;;;24.20;90.80;;;;;;6181650;23;20069;-67
2023/05/21 09:15:25;;;;;;;9.38;7.00;;;24.30;90.90;;;;;;6180507;23;20699;-67
2023/05/21 09:17:51;;;;;;;9.13;6.32;;;24.40;90.90;;;;;;6179688;23;20439;-68
2023/05/21 09:20:17;;;;;;;10.07;6.95;;;24.40;90.60;;;;;;6179797;23;20016;-68
2023/05/21 09:22:47;;;;;;;10.50;6.40;;;24.50;90.50;;;;;;6181549;23;20028;-68
2023/05/21 09:25:28;;;;;;;11.13;6.63;;;24.60;90.30;;;;;;6181563;23;20009;-68
2023/05/21 09:27:57;;;;;;;8.48;6.50;;;24.70;90.30;;;;;;6180836;23;20444;-68
2023/05/21 09:30:23;;;;;;;9.77;6.65;;;24.80;90.00;;;;;;6177946;23;20019;-68
2023/05/21 09:32:58;;;;;;;7.88;6.22;;;24.80;89.60;;;;;;6181274;23;20068;-69
2023/05/21 09:35:23;;;;;;;7.22;5.70;;;24.90;89.60;;;;;;6180688;23;20020;-69
2023/05/21 09:37:51;;;;;;;11.70;6.82;;;24.90;89.00;;;;;;6181696;23;20343;-68
2023/05/21 09:40:18;;;;;;;7.57;6.28;;;25.00;88.30;;;;;;6153835;23;20335;-68
2023/05/21 09:42:54;;;;;;;9.18;5.97;;;25.00;87.90;;;;;;6181857;23;20024;-69
2023/05/21 09:45:21;;;;;;;10.48;5.50;;;25.10;87.70;;;;;;6180807;23;20105;-69
2023/05/21 09:47:48;;;;;;;10.55;6.40;;;25.10;87.50;;;;;;6181599;23;20016;-69
2023/05/21 09:50:17;;;;;;;10.15;5.28;;;25.10;87.10;;;;;;6179652;23;20009;-69
2023/05/21 09:52:42;;;;;;;8.65;5.95;;;25.30;87.70;;;;;;6181571;23;20012;-69
2023/05/21 09:55:13;;;;;;;8.40;5.78;;;25.40;87.40;;;;;;6180962;23;20394;-68
2023/05/21 09:57:46;;;;;;;7.55;5.15;;;25.50;86.30;;;;;;6182053;23;20001;-69
2023/05/21 10:00:26;;;;;;;9.73;5.10;;;25.50;85.70;;;;;;6180081;23;20075;-68
2023/05/21 10:02:57;;;;;;;9.02;6.03;;;25.60;85.60;;;;;;6181146;23;20005;-69
2023/05/21 10:05:29;;;;;;;6.13;5.13;;;25.60;84.80;;;;;;6180331;23;20121;-68
2023/05/21 10:08:02;;;;;;;11.60;5.60;;;25.60;85.00;;;;;;6180767;23;20005;-69
2023/05/21 10:10:30;;;;;;;10.10;6.70;;;25.60;84.80;;;;;;6180042;23;20009;-69
2023/05/21 10:13:08;;;;;;;6.88;5.30;;;25.60;84.50;;;;;;6180753;23;20013;-68
2023/05/21 10:15:44;;;;;;;7.18;5.00;;;25.60;84.80;;;;;;6178116;23;20009;-68
2023/05/21 10:18:12;;;;;;;7.07;5.57;;;25.60;84.90;;;;;;6181544;23;20009;-67
2023/05/21 10:20:38;;;;;;;8.35;5.60;;;25.70;84.80;;;;;;6180366;23;20384;-68
2023/05/21 10:23:05;;;;;;;7.15;5.28;;;25.80;84.00;;;;;;6181405;23;20037;-68
2023/05/21 10:25:33;;;;;;;7.25;4.72;;;25.90;84.00;;;;;;6180544;23;20029;-68
2023/05/21 10:27:59;;;;;;;7.55;5.45;;;25.90;83.90;;;;;;6179161;23;20001;-68
2023/05/21 10:30:25;;;;;;;8.80;5.47;;;26.00;83.60;;;;;;6181579;23;20012;-68
2023/05/21 10:32:51;;;;;;;8.85;4.97;;;26.10;83.40;;;;;;6182081;23;20431;-68
2023/05/21 10:35:19;;;;;;;7.75;5.78;;;26.10;83.10;;;;;;6183768;23;20324;-69
2023/05/21 10:37:45;;;;;;;9.00;5.90;;;26.20;82.50;;;;;;6183175;23;20016;-69
2023/05/21 10:40:12;;;;;;;7.82;4.60;;;26.30;82.00;;;;;;6182079;23;20013;-68
2023/05/21 10:42:59;;;;;;;11.73;5.47;;;26.40;82.30;;;;;;6183341;23;20036;-69
2023/05/21 10:45:55;;;;;;;9.52;5.80;;;26.50;81.80;;;;;;6182214;23;20032;-67
2023/05/21 10:48:59;;;;;;;6.60;4.85;;;26.50;81.40;;;;;;6183779;23;20067;-68
2023/05/21 10:51:40;;;;;;;7.85;5.68;;;26.50;81.50;;;;;;6108122;23;20049;-68
2023/05/21 10:54:36;;;;;;;9.57;5.00;;;26.50;81.00;;;;;;6184029;23;20016;-68
2023/05/21 10:57:40;;;;;;;8.23;4.95;;;26.60;80.10;;;;;;6183739;23;20283;-68
2023/05/21 11:00:08;;;;;;;6.50;5.40;;;26.60;79.20;;;;;;6183286;23;20005;-68
2023/05/21 11:02:34;;;;;;;9.70;4.72;;;26.60;78.30;;;;;;6183523;23;20505;-69
2023/05/21 11:05:01;;;;;;;6.80;4.90;;;26.60;78.20;;;;;;6183630;23;20052;-68
2023/05/21 11:07:52;;;;;;;6.03;4.43;;;26.70;78.00;;;;;;6182942;23;20008;-69
2023/05/21 11:10:39;;;;;;;5.72;4.45;;;26.70;77.70;;;;;;6183650;23;20001;-68
2023/05/21 11:13:24;;;;;;;7.05;4.72;;;26.70;77.50;;;;;;6182802;23;20328;-68
2023/05/21 11:16:00;;;;;;;7.22;4.85;;;26.70;77.10;;;;;;6182314;23;20008;-68
2023/05/21 11:18:34;;;;;;;5.50;4.68;;;26.80;77.30;;;;;;6155739;23;20016;-69
2023/05/21 11:21:10;;;;;;;6.63;4.18;;;26.90;77.00;;;;;;6182244;23;20092;-70
2023/05/21 11:23:52;;;;;;;6.35;4.53;;;26.90;76.60;;;;;;6183413;23;20013;-70
2023/05/21 11:26:21;;;;;;;8.65;4.65;;;27.00;76.40;;;;;;6182889;23;20459;-69
2023/05/21 11:29:06;;;;;;;11.18;5.07;;;27.00;75.90;;;;;;6181957;23;20055;-70
2023/05/21 11:31:37;;;;;;;6.88;4.93;;;27.10;76.40;;;;;;6156279;23;20009;-70
2023/05/21 11:34:27;;;;;;;5.50;4.18;;;27.10;75.90;;;;;;6183130;23;20014;-67
2023/05/21 11:37:15;;;;;;;6.78;3.70;;;27.20;75.60;;;;;;6182970;23;20131;-66
2023/05/21 11:39:41;;;;;;;5.95;4.63;;;27.40;75.40;;;;;;6182277;23;20005;-66
2023/05/21 11:42:07;;;;;;;7.07;4.97;;;27.40;74.50;;;;;;6182724;23;20410;-66
2023/05/21 11:44:46;;;;;;;6.45;4.13;;;27.50;74.10;;;;;;6182341;23;20021;-66
2023/05/21 11:47:20;;;;;;;8.05;4.60;;;27.60;73.60;;;;;;6181936;23;20052;-66
2023/05/21 11:49:46;;;;;;;5.65;3.78;;;27.70;72.60;;;;;;6182146;23;20063;-67
2023/05/21 11:52:13;;;;;;;5.72;4.30;;;27.90;72.00;;;;;;6183686;23;20009;-66
2023/05/21 11:54:51;;;;;;;6.95;4.05;;;28.00;71.50;;;;;;6182674;23;20007;-66
2023/05/21 11:57:18;;;;;;;8.05;4.28;;;28.10;70.30;;;;;;6182396;23;20447;-67
2023/05/21 11:59:45;;;;;;;6.70;3.72;;;28.10;69.50;;;;;;6181868;23;20015;-66
2023/05/21 12:02:18;;;;;;;5.32;4.05;;;28.10;68.80;;;;;;6183011;23;20056;-66
2023/05/21 12:04:45;;;;;;;6.65;3.83;;;28.10;68.90;;;;;;6180253;23;20021;-66
2023/05/21 12:07:12;;;;;;;5.93;4.18;;;28.10;69.10;;;;;;6182334;23;20005;-66
2023/05/21 12:09:56;;;;;;;5.40;3.80;;;28.10;69.00;;;;;;6180730;23;20347;-66
2023/05/21 12:12:25;;;;;;;5.97;3.88;;;28.10;69.50;;;;;;6182642;23;20016;-66
2023/05/21 12:14:54;;;;;;;5.30;3.80;;;28.20;69.70;;;;;;6182354;23;20013;-66
2023/05/21 12:17:25;;;;;;;6.60;4.20;;;28.30;69.00;;;;;;6182341;23;20001;-66
2023/05/21 12:19:53;;;;;;;6.43;4.20;;;28.30;68.60;;;;;;6182013;23;20019;-67
2023/05/21 12:22:19;;;;;;;5.32;4.05;;;28.30;68.40;;;;;;6155938;23;20013;-66
2023/05/21 12:24:45;;;;;;;6.65;3.78;;;28.40;68.20;;;;;;6156038;23;20016;-65
2023/05/21 12:27:12;;;;;;;8.65;4.00;;;28.40;67.80;;;;;;6181951;23;20013;-66
2023/05/21 12:29:42;;;;;;;4.85;3.88;;;28.50;68.00;;;;;;6182272;23;20012;-65
2023/05/21 12:32:12;;;;;;;11.15;3.90;;;28.60;68.00;;;;;;6181748;23;20009;-65
2023/05/21 12:34:45;;;;;;;5.57;4.05;;;28.60;67.80;;;;;;6181339;23;20005;-67
2023/05/21 12:37:21;;;;;;;6.68;4.20;;;28.70;67.00;;;;;;6182180;23;20005;-64